sensor_id;sensor_type;location;lat;lon;timestamp;P1;durP1;ratioP1;P2;durP2;ratioP2
52534;SDS011;38443;53.164;5.802;2023-06-14T00:00:03;4.18;;;2.33;;
52534;SDS011;38443;53.164;5.802;2023-06-14T00:02:29;3.60;;;2.00;;
52534;SDS011;38443;53.164;5.802;2023-06-14T00:04:54;2.78;;;2.20;;
52534;SDS011;38443;53.164;5.802;2023-06-14T00:07:22;3.60;;;2.10;;
52534;SDS011;38443;53.164;5.802;2023-06-14T00:09:59;3.42;;;1.90;;
52534;SDS011;38443;53.164;5.802;2023-06-14T00:12:24;3.60;;;2.30;;
52534;SDS011;38443;53.164;5.802;2023-06-14T00:14:49;5.47;;;2.00;;
52534;SDS011;38443;53.164;5.802;2023-06-14T00:17:15;2.75;;;1.70;;
52534;SDS011;38443;53.164;5.802;2023-06-14T00:19:42;3.58;;;2.08;;
52534;SDS011;38443;53.164;5.802;2023-06-14T00:22:07;3.80;;;2.03;;
52534;SDS011;38443;53.164;5.802;2023-06-14T00:24:32;5.07;;;2.22;;
52534;SDS011;38443;53.164;5.802;2023-06-14T00:26:58;5.05;;;2.03;;
52534;SDS011;38443;53.164;5.802;2023-06-14T00:29:23;1.90;;;1.70;;
52534;SDS011;38443;53.164;5.802;2023-06-14T00:31:48;3.42;;;1.88;;
52534;SDS011;38443;53.164;5.802;2023-06-14T00:34:14;4.10;;;2.08;;
52534;SDS011;38443;53.164;5.802;2023-06-14T00:36:39;2.72;;;1.80;;
52534;SDS011;38443;53.164;5.802;2023-06-14T00:39:04;2.30;;;1.70;;
52534;SDS011;38443;53.164;5.802;2023-06-14T00:41:30;4.65;;;2.17;;
52534;SDS011;38443;53.164;5.802;2023-06-14T00:43:55;3.63;;;2.17;;
52534;SDS011;38443;53.164;5.802;2023-06-14T00:46:21;3.83;;;2.10;;
52534;SDS011;38443;53.164;5.802;2023-06-14T00:48:47;2.92;;;2.20;;
52534;SDS011;38443;53.164;5.802;2023-06-14T00:51:13;2.70;;;1.98;;
52534;SDS011;38443;53.164;5.802;2023-06-14T00:53:39;3.28;;;2.08;;
52534;SDS011;38443;53.164;5.802;2023-06-14T00:56:06;3.55;;;2.13;;
52534;SDS011;38443;53.164;5.802;2023-06-14T00:58:32;4.13;;;2.00;;
52534;SDS011;38443;53.164;5.802;2023-06-14T01:00:57;4.07;;;2.05;;
52534;SDS011;38443;53.164;5.802;2023-06-14T01:03:23;4.15;;;1.77;;
52534;SDS011;38443;53.164;5.802;2023-06-14T01:06:53;3.65;;;1.92;;
52534;SDS011;38443;53.164;5.802;2023-06-14T01:09:03;3.42;;;1.90;;
52534;SDS011;38443;53.164;5.802;2023-06-14T01:12:24;2.15;;;1.95;;
52534;SDS011;38443;53.164;5.802;2023-06-14T01:14:27;2.72;;;1.95;;
52534;SDS011;38443;53.164;5.802;2023-06-14T01:16:55;3.03;;;1.83;;
52534;SDS011;38443;53.164;5.802;2023-06-14T01:19:22;3.67;;;1.98;;
52534;SDS011;38443;53.164;5.802;2023-06-14T01:21:50;3.35;;;1.98;;
52534;SDS011;38443;53.164;5.802;2023-06-14T01:24:16;5.53;;;2.67;;
52534;SDS011;38443;53.164;5.802;2023-06-14T01:26:44;4.72;;;1.95;;
52534;SDS011;38443;53.164;5.802;2023-06-14T01:29:11;3.53;;;2.00;;
52534;SDS011;38443;53.164;5.802;2023-06-14T01:31:42;3.38;;;1.67;;
52534;SDS011;38443;53.164;5.802;2023-06-14T01:34:08;3.78;;;1.90;;
52534;SDS011;38443;53.164;5.802;2023-06-14T01:36:33;2.28;;;1.80;;
52534;SDS011;38443;53.164;5.802;2023-06-14T01:39:01;2.67;;;1.98;;
52534;SDS011;38443;53.164;5.802;2023-06-14T01:41:27;3.67;;;1.80;;
52534;SDS011;38443;53.164;5.802;2023-06-14T01:43:54;3.50;;;2.15;;
52534;SDS011;38443;53.164;5.802;2023-06-14T01:46:21;4.22;;;1.67;;
52534;SDS011;38443;53.164;5.802;2023-06-14T01:48:48;2.78;;;2.05;;
52534;SDS011;38443;53.164;5.802;2023-06-14T01:51:14;2.13;;;1.80;;
52534;SDS011;38443;53.164;5.802;2023-06-14T01:53:39;3.15;;;2.10;;
52534;SDS011;38443;53.164;5.802;2023-06-14T01:56:05;2.17;;;1.83;;
52534;SDS011;38443;53.164;5.802;2023-06-14T01:58:31;3.95;;;1.92;;
52534;SDS011;38443;53.164;5.802;2023-06-14T02:00:57;2.88;;;1.80;;
52534;SDS011;38443;53.164;5.802;2023-06-14T02:03:23;2.33;;;1.70;;
52534;SDS011;38443;53.164;5.802;2023-06-14T02:05:49;5.03;;;2.88;;
52534;SDS011;38443;53.164;5.802;2023-06-14T02:08:15;4.40;;;2.22;;
52534;SDS011;38443;53.164;5.802;2023-06-14T02:10:40;2.70;;;1.90;;
52534;SDS011;38443;53.164;5.802;2023-06-14T02:13:05;3.35;;;2.25;;
52534;SDS011;38443;53.164;5.802;2023-06-14T02:15:31;3.70;;;2.15;;
52534;SDS011;38443;53.164;5.802;2023-06-14T02:18:01;3.17;;;2.10;;
52534;SDS011;38443;53.164;5.802;2023-06-14T02:20:28;3.40;;;1.95;;
52534;SDS011;38443;53.164;5.802;2023-06-14T02:22:53;3.65;;;2.05;;
52534;SDS011;38443;53.164;5.802;2023-06-14T02:25:19;4.72;;;2.30;;
52534;SDS011;38443;53.164;5.802;2023-06-14T02:27:44;4.53;;;2.33;;
52534;SDS011;38443;53.164;5.802;2023-06-14T02:30:10;3.28;;;1.90;;
52534;SDS011;38443;53.164;5.802;2023-06-14T02:32:36;4.35;;;2.10;;
52534;SDS011;38443;53.164;5.802;2023-06-14T02:35:01;4.10;;;1.85;;
52534;SDS011;38443;53.164;5.802;2023-06-14T02:37:27;5.25;;;2.33;;
52534;SDS011;38443;53.164;5.802;2023-06-14T02:39:52;7.05;;;2.60;;
52534;SDS011;38443;53.164;5.802;2023-06-14T02:42:18;4.53;;;1.90;;
52534;SDS011;38443;53.164;5.802;2023-06-14T02:44:43;2.90;;;1.85;;
52534;SDS011;38443;53.164;5.802;2023-06-14T02:47:10;3.47;;;1.77;;
52534;SDS011;38443;53.164;5.802;2023-06-14T02:49:35;4.88;;;1.90;;
52534;SDS011;38443;53.164;5.802;2023-06-14T02:52:00;3.45;;;2.10;;
52534;SDS011;38443;53.164;5.802;2023-06-14T02:54:26;2.03;;;1.70;;
52534;SDS011;38443;53.164;5.802;2023-06-14T02:56:51;3.47;;;2.10;;
52534;SDS011;38443;53.164;5.802;2023-06-14T02:59:16;4.50;;;2.50;;
52534;SDS011;38443;53.164;5.802;2023-06-14T03:01:42;4.47;;;2.00;;
52534;SDS011;38443;53.164;5.802;2023-06-14T03:04:07;4.40;;;2.00;;
52534;SDS011;38443;53.164;5.802;2023-06-14T03:06:33;4.03;;;2.17;;
52534;SDS011;38443;53.164;5.802;2023-06-14T03:08:59;2.95;;;2.20;;
52534;SDS011;38443;53.164;5.802;2023-06-14T03:11:26;3.03;;;2.03;;
52534;SDS011;38443;53.164;5.802;2023-06-14T03:13:52;5.30;;;2.30;;
52534;SDS011;38443;53.164;5.802;2023-06-14T03:16:18;3.75;;;2.20;;
52534;SDS011;38443;53.164;5.802;2023-06-14T03:18:49;4.82;;;2.30;;
52534;SDS011;38443;53.164;5.802;2023-06-14T03:21:16;3.97;;;2.53;;
52534;SDS011;38443;53.164;5.802;2023-06-14T03:23:42;3.90;;;2.35;;
52534;SDS011;38443;53.164;5.802;2023-06-14T03:26:08;6.05;;;2.63;;
52534;SDS011;38443;53.164;5.802;2023-06-14T03:28:33;3.05;;;2.53;;
52534;SDS011;38443;53.164;5.802;2023-06-14T03:30:59;3.88;;;2.30;;
52534;SDS011;38443;53.164;5.802;2023-06-14T03:33:24;4.07;;;2.45;;
52534;SDS011;38443;53.164;5.802;2023-06-14T03:35:50;4.28;;;2.20;;
52534;SDS011;38443;53.164;5.802;2023-06-14T03:38:16;3.97;;;2.22;;
52534;SDS011;38443;53.164;5.802;2023-06-14T03:40:41;3.50;;;2.10;;
52534;SDS011;38443;53.164;5.802;2023-06-14T03:43:06;4.38;;;2.28;;
52534;SDS011;38443;53.164;5.802;2023-06-14T03:45:32;4.47;;;2.58;;
52534;SDS011;38443;53.164;5.802;2023-06-14T03:47:57;4.72;;;2.83;;
52534;SDS011;38443;53.164;5.802;2023-06-14T03:50:23;3.92;;;2.25;;
52534;SDS011;38443;53.164;5.802;2023-06-14T03:52:48;4.03;;;2.50;;
52534;SDS011;38443;53.164;5.802;2023-06-14T03:55:15;5.05;;;2.40;;
52534;SDS011;38443;53.164;5.802;2023-06-14T03:57:41;3.95;;;2.45;;
52534;SDS011;38443;53.164;5.802;2023-06-14T04:00:07;3.38;;;2.53;;
52534;SDS011;38443;53.164;5.802;2023-06-14T04:02:34;4.05;;;2.58;;
52534;SDS011;38443;53.164;5.802;2023-06-14T04:04:59;3.50;;;2.60;;
52534;SDS011;38443;53.164;5.802;2023-06-14T04:07:25;3.85;;;2.53;;
52534;SDS011;38443;53.164;5.802;2023-06-14T04:09:53;4.97;;;2.20;;
52534;SDS011;38443;53.164;5.802;2023-06-14T04:12:19;4.82;;;2.47;;
52534;SDS011;38443;53.164;5.802;2023-06-14T04:14:44;3.38;;;2.40;;
52534;SDS011;38443;53.164;5.802;2023-06-14T04:17:09;7.05;;;2.92;;
52534;SDS011;38443;53.164;5.802;2023-06-14T04:19:35;6.55;;;3.22;;
52534;SDS011;38443;53.164;5.802;2023-06-14T04:22:00;4.25;;;2.75;;
52534;SDS011;38443;53.164;5.802;2023-06-14T04:24:27;6.28;;;2.40;;
52534;SDS011;38443;53.164;5.802;2023-06-14T04:26:57;4.97;;;2.35;;
52534;SDS011;38443;53.164;5.802;2023-06-14T04:29:23;4.60;;;2.55;;
52534;SDS011;38443;53.164;5.802;2023-06-14T04:31:51;4.63;;;2.55;;
52534;SDS011;38443;53.164;5.802;2023-06-14T04:34:18;4.43;;;2.53;;
52534;SDS011;38443;53.164;5.802;2023-06-14T04:36:44;5.07;;;2.58;;
52534;SDS011;38443;53.164;5.802;2023-06-14T04:39:18;5.25;;;2.60;;
52534;SDS011;38443;53.164;5.802;2023-06-14T04:41:44;4.18;;;2.28;;
52534;SDS011;38443;53.164;5.802;2023-06-14T04:44:10;4.47;;;3.05;;
52534;SDS011;38443;53.164;5.802;2023-06-14T04:46:36;4.57;;;2.63;;
52534;SDS011;38443;53.164;5.802;2023-06-14T04:49:16;4.55;;;2.55;;
52534;SDS011;38443;53.164;5.802;2023-06-14T04:51:42;6.45;;;3.08;;
52534;SDS011;38443;53.164;5.802;2023-06-14T04:54:09;5.05;;;2.80;;
52534;SDS011;38443;53.164;5.802;2023-06-14T04:56:38;6.72;;;2.85;;
52534;SDS011;38443;53.164;5.802;2023-06-14T04:59:03;5.28;;;3.20;;
52534;SDS011;38443;53.164;5.802;2023-06-14T05:01:31;3.85;;;2.80;;
52534;SDS011;38443;53.164;5.802;2023-06-14T05:03:58;6.00;;;2.78;;
52534;SDS011;38443;53.164;5.802;2023-06-14T05:06:24;8.40;;;3.17;;
52534;SDS011;38443;53.164;5.802;2023-06-14T05:08:49;6.95;;;3.00;;
52534;SDS011;38443;53.164;5.802;2023-06-14T05:11:15;6.93;;;3.35;;
52534;SDS011;38443;53.164;5.802;2023-06-14T05:13:42;4.97;;;3.17;;
52534;SDS011;38443;53.164;5.802;2023-06-14T05:16:08;4.55;;;2.67;;
52534;SDS011;38443;53.164;5.802;2023-06-14T05:18:33;5.47;;;2.72;;
52534;SDS011;38443;53.164;5.802;2023-06-14T05:21:00;4.55;;;3.00;;
52534;SDS011;38443;53.164;5.802;2023-06-14T05:23:26;6.47;;;3.13;;
52534;SDS011;38443;53.164;5.802;2023-06-14T05:25:51;4.70;;;2.88;;
52534;SDS011;38443;53.164;5.802;2023-06-14T05:28:16;4.88;;;2.78;;
52534;SDS011;38443;53.164;5.802;2023-06-14T05:30:42;5.55;;;3.42;;
52534;SDS011;38443;53.164;5.802;2023-06-14T05:33:07;5.90;;;2.83;;
52534;SDS011;38443;53.164;5.802;2023-06-14T05:35:33;5.93;;;2.95;;
52534;SDS011;38443;53.164;5.802;2023-06-14T05:37:58;5.93;;;3.38;;
52534;SDS011;38443;53.164;5.802;2023-06-14T05:40:23;5.90;;;2.50;;
52534;SDS011;38443;53.164;5.802;2023-06-14T05:42:49;5.25;;;3.28;;
52534;SDS011;38443;53.164;5.802;2023-06-14T05:45:14;4.72;;;3.25;;
52534;SDS011;38443;53.164;5.802;2023-06-14T05:47:43;5.20;;;2.90;;
52534;SDS011;38443;53.164;5.802;2023-06-14T05:50:08;4.35;;;2.92;;
52534;SDS011;38443;53.164;5.802;2023-06-14T05:52:34;5.35;;;2.83;;
52534;SDS011;38443;53.164;5.802;2023-06-14T05:55:00;7.40;;;3.70;;
52534;SDS011;38443;53.164;5.802;2023-06-14T05:57:26;4.57;;;2.90;;
52534;SDS011;38443;53.164;5.802;2023-06-14T05:59:51;6.40;;;3.30;;
52534;SDS011;38443;53.164;5.802;2023-06-14T06:02:17;4.32;;;3.15;;
52534;SDS011;38443;53.164;5.802;2023-06-14T06:04:42;5.82;;;3.25;;
52534;SDS011;38443;53.164;5.802;2023-06-14T06:07:08;5.18;;;3.10;;
52534;SDS011;38443;53.164;5.802;2023-06-14T06:09:33;4.35;;;2.88;;
52534;SDS011;38443;53.164;5.802;2023-06-14T06:11:59;5.43;;;2.88;;
52534;SDS011;38443;53.164;5.802;2023-06-14T06:14:24;6.35;;;2.97;;
52534;SDS011;38443;53.164;5.802;2023-06-14T06:16:50;6.85;;;2.53;;
52534;SDS011;38443;53.164;5.802;2023-06-14T06:19:17;6.95;;;3.60;;
52534;SDS011;38443;53.164;5.802;2023-06-14T06:21:43;5.97;;;3.10;;
52534;SDS011;38443;53.164;5.802;2023-06-14T06:24:08;3.65;;;3.05;;
52534;SDS011;38443;53.164;5.802;2023-06-14T06:26:33;5.07;;;3.35;;
52534;SDS011;38443;53.164;5.802;2023-06-14T06:28:59;5.55;;;3.13;;
52534;SDS011;38443;53.164;5.802;2023-06-14T06:31:24;8.88;;;3.13;;
52534;SDS011;38443;53.164;5.802;2023-06-14T06:33:52;7.20;;;3.15;;
52534;SDS011;38443;53.164;5.802;2023-06-14T06:36:19;5.03;;;3.10;;
52534;SDS011;38443;53.164;5.802;2023-06-14T06:38:45;4.63;;;3.15;;
52534;SDS011;38443;53.164;5.802;2023-06-14T06:41:10;3.63;;;2.80;;
52534;SDS011;38443;53.164;5.802;2023-06-14T06:43:35;4.78;;;2.60;;
52534;SDS011;38443;53.164;5.802;2023-06-14T06:46:01;5.47;;;2.65;;
52534;SDS011;38443;53.164;5.802;2023-06-14T06:48:26;4.30;;;2.70;;
52534;SDS011;38443;53.164;5.802;2023-06-14T06:50:51;4.28;;;2.80;;
52534;SDS011;38443;53.164;5.802;2023-06-14T06:53:17;4.00;;;2.70;;
52534;SDS011;38443;53.164;5.802;2023-06-14T06:55:43;3.90;;;2.45;;
52534;SDS011;38443;53.164;5.802;2023-06-14T06:58:09;4.05;;;2.70;;
52534;SDS011;38443;53.164;5.802;2023-06-14T07:00:35;3.50;;;2.90;;
52534;SDS011;38443;53.164;5.802;2023-06-14T07:03:00;4.88;;;2.65;;
52534;SDS011;38443;53.164;5.802;2023-06-14T07:05:26;5.43;;;2.92;;
52534;SDS011;38443;53.164;5.802;2023-06-14T07:07:51;5.50;;;2.75;;
52534;SDS011;38443;53.164;5.802;2023-06-14T07:10:16;3.25;;;2.38;;
52534;SDS011;38443;53.164;5.802;2023-06-14T07:12:42;4.22;;;2.25;;
52534;SDS011;38443;53.164;5.802;2023-06-14T07:15:07;3.33;;;2.20;;
52534;SDS011;38443;53.164;5.802;2023-06-14T07:17:33;4.70;;;2.50;;
52534;SDS011;38443;53.164;5.802;2023-06-14T07:19:59;4.45;;;2.78;;
52534;SDS011;38443;53.164;5.802;2023-06-14T07:22:26;3.10;;;2.55;;
52534;SDS011;38443;53.164;5.802;2023-06-14T07:24:51;4.75;;;2.58;;
52534;SDS011;38443;53.164;5.802;2023-06-14T07:27:16;3.75;;;2.50;;
52534;SDS011;38443;53.164;5.802;2023-06-14T07:29:42;5.38;;;2.70;;
52534;SDS011;38443;53.164;5.802;2023-06-14T07:32:07;4.13;;;2.70;;
52534;SDS011;38443;53.164;5.802;2023-06-14T07:34:32;4.47;;;2.60;;
52534;SDS011;38443;53.164;5.802;2023-06-14T07:36:58;3.70;;;2.33;;
52534;SDS011;38443;53.164;5.802;2023-06-14T07:39:23;5.40;;;2.20;;
52534;SDS011;38443;53.164;5.802;2023-06-14T07:41:48;6.57;;;2.35;;
52534;SDS011;38443;53.164;5.802;2023-06-14T07:44:14;3.90;;;2.28;;
52534;SDS011;38443;53.164;5.802;2023-06-14T07:46:40;3.13;;;2.35;;
52534;SDS011;38443;53.164;5.802;2023-06-14T07:49:06;3.22;;;2.10;;
52534;SDS011;38443;53.164;5.802;2023-06-14T07:51:32;4.35;;;2.50;;
52534;SDS011;38443;53.164;5.802;2023-06-14T07:53:58;3.17;;;2.17;;
52534;SDS011;38443;53.164;5.802;2023-06-14T07:56:25;3.22;;;2.10;;
52534;SDS011;38443;53.164;5.802;2023-06-14T07:58:51;4.50;;;2.50;;
52534;SDS011;38443;53.164;5.802;2023-06-14T08:01:16;4.85;;;2.25;;
52534;SDS011;38443;53.164;5.802;2023-06-14T08:03:42;3.33;;;2.30;;
52534;SDS011;38443;53.164;5.802;2023-06-14T08:06:08;3.90;;;2.10;;
52534;SDS011;38443;53.164;5.802;2023-06-14T08:08:33;2.72;;;2.20;;
52534;SDS011;38443;53.164;5.802;2023-06-14T08:10:58;4.45;;;2.83;;
52534;SDS011;38443;53.164;5.802;2023-06-14T08:13:24;3.42;;;2.28;;
52534;SDS011;38443;53.164;5.802;2023-06-14T08:15:49;4.05;;;2.20;;
52534;SDS011;38443;53.164;5.802;2023-06-14T08:18:15;3.28;;;2.25;;
52534;SDS011;38443;53.164;5.802;2023-06-14T08:20:40;3.40;;;2.33;;
52534;SDS011;38443;53.164;5.802;2023-06-14T08:23:06;4.47;;;2.03;;
52534;SDS011;38443;53.164;5.802;2023-06-14T08:25:31;3.35;;;2.17;;
52534;SDS011;38443;53.164;5.802;2023-06-14T08:28:00;3.03;;;2.10;;
52534;SDS011;38443;53.164;5.802;2023-06-14T08:30:25;4.63;;;2.15;;
52534;SDS011;38443;53.164;5.802;2023-06-14T08:32:51;2.95;;;2.08;;
52534;SDS011;38443;53.164;5.802;2023-06-14T08:35:17;4.68;;;2.65;;
52534;SDS011;38443;53.164;5.802;2023-06-14T08:37:43;3.10;;;2.05;;
52534;SDS011;38443;53.164;5.802;2023-06-14T08:40:13;3.50;;;1.80;;
52534;SDS011;38443;53.164;5.802;2023-06-14T08:42:47;2.67;;;1.95;;
52534;SDS011;38443;53.164;5.802;2023-06-14T08:45:15;3.50;;;2.10;;
52534;SDS011;38443;53.164;5.802;2023-06-14T08:47:41;4.53;;;2.63;;
52534;SDS011;38443;53.164;5.802;2023-06-14T08:50:06;4.55;;;2.10;;
52534;SDS011;38443;53.164;5.802;2023-06-14T08:52:33;3.97;;;2.10;;
52534;SDS011;38443;53.164;5.802;2023-06-14T08:55:10;3.70;;;2.00;;
52534;SDS011;38443;53.164;5.802;2023-06-14T08:57:36;2.50;;;2.10;;
52534;SDS011;38443;53.164;5.802;2023-06-14T09:00:03;3.40;;;2.45;;
52534;SDS011;38443;53.164;5.802;2023-06-14T09:02:37;3.33;;;2.40;;
52534;SDS011;38443;53.164;5.802;2023-06-14T09:05:03;2.72;;;2.03;;
52534;SDS011;38443;53.164;5.802;2023-06-14T09:07:28;3.35;;;2.65;;
52534;SDS011;38443;53.164;5.802;2023-06-14T09:10:10;3.90;;;2.40;;
52534;SDS011;38443;53.164;5.802;2023-06-14T09:12:37;3.33;;;2.03;;
52534;SDS011;38443;53.164;5.802;2023-06-14T09:15:03;4.00;;;2.30;;
52534;SDS011;38443;53.164;5.802;2023-06-14T09:17:40;3.50;;;2.20;;
52534;SDS011;38443;53.164;5.802;2023-06-14T09:20:06;3.42;;;2.00;;
52534;SDS011;38443;53.164;5.802;2023-06-14T09:22:42;3.78;;;2.08;;
52534;SDS011;38443;53.164;5.802;2023-06-14T09:25:07;4.78;;;2.42;;
52534;SDS011;38443;53.164;5.802;2023-06-14T09:27:33;3.17;;;2.28;;
52534;SDS011;38443;53.164;5.802;2023-06-14T09:29:58;4.03;;;2.38;;
52534;SDS011;38443;53.164;5.802;2023-06-14T09:32:24;3.13;;;2.20;;
52534;SDS011;38443;53.164;5.802;2023-06-14T09:34:50;5.15;;;2.58;;
52534;SDS011;38443;53.164;5.802;2023-06-14T09:37:29;7.32;;;2.25;;
52534;SDS011;38443;53.164;5.802;2023-06-14T09:39:56;4.10;;;1.70;;
52534;SDS011;38443;53.164;5.802;2023-06-14T09:42:22;7.25;;;2.25;;
52534;SDS011;38443;53.164;5.802;2023-06-14T09:44:50;2.95;;;2.17;;
52534;SDS011;38443;53.164;5.802;2023-06-14T09:47:17;4.18;;;2.33;;
52534;SDS011;38443;53.164;5.802;2023-06-14T09:49:43;3.22;;;2.40;;
52534;SDS011;38443;53.164;5.802;2023-06-14T09:52:10;2.90;;;2.25;;
52534;SDS011;38443;53.164;5.802;2023-06-14T09:54:40;2.50;;;1.95;;
52534;SDS011;38443;53.164;5.802;2023-06-14T09:57:11;3.05;;;2.20;;
52534;SDS011;38443;53.164;5.802;2023-06-14T09:59:39;3.28;;;2.25;;
52534;SDS011;38443;53.164;5.802;2023-06-14T10:02:11;3.50;;;1.95;;
52534;SDS011;38443;53.164;5.802;2023-06-14T10:04:45;3.30;;;2.00;;
52534;SDS011;38443;53.164;5.802;2023-06-14T10:07:17;4.15;;;2.15;;
52534;SDS011;38443;53.164;5.802;2023-06-14T10:09:44;3.47;;;1.92;;
52534;SDS011;38443;53.164;5.802;2023-06-14T10:12:15;5.82;;;2.35;;
52534;SDS011;38443;53.164;5.802;2023-06-14T10:14:47;3.40;;;1.80;;
52534;SDS011;38443;53.164;5.802;2023-06-14T10:17:17;4.68;;;2.30;;
52534;SDS011;38443;53.164;5.802;2023-06-14T10:19:56;3.67;;;2.20;;
52534;SDS011;38443;53.164;5.802;2023-06-14T10:22:36;4.50;;;2.03;;
52534;SDS011;38443;53.164;5.802;2023-06-14T10:25:07;3.88;;;2.08;;
52534;SDS011;38443;53.164;5.802;2023-06-14T10:27:38;2.70;;;2.30;;
52534;SDS011;38443;53.164;5.802;2023-06-14T10:30:04;3.97;;;2.10;;
52534;SDS011;38443;53.164;5.802;2023-06-14T10:32:32;3.45;;;1.90;;
52534;SDS011;38443;53.164;5.802;2023-06-14T10:35:04;4.90;;;2.40;;
52534;SDS011;38443;53.164;5.802;2023-06-14T10:37:30;4.88;;;2.30;;
52534;SDS011;38443;53.164;5.802;2023-06-14T10:39:56;3.90;;;2.13;;
52534;SDS011;38443;53.164;5.802;2023-06-14T10:42:21;3.05;;;2.28;;
52534;SDS011;38443;53.164;5.802;2023-06-14T10:44:55;2.42;;;2.10;;
52534;SDS011;38443;53.164;5.802;2023-06-14T10:49:57;5.05;;;2.17;;
52534;SDS011;38443;53.164;5.802;2023-06-14T10:52:40;2.92;;;2.22;;
52534;SDS011;38443;53.164;5.802;2023-06-14T10:55:08;3.95;;;2.10;;
52534;SDS011;38443;53.164;5.802;2023-06-14T10:57:42;3.03;;;2.30;;
52534;SDS011;38443;53.164;5.802;2023-06-14T11:00:16;2.50;;;2.10;;
52534;SDS011;38443;53.164;5.802;2023-06-14T11:02:52;2.85;;;2.15;;
52534;SDS011;38443;53.164;5.802;2023-06-14T11:11:16;3.60;;;2.22;;
52534;SDS011;38443;53.164;5.802;2023-06-14T11:13:43;2.13;;;1.88;;
52534;SDS011;38443;53.164;5.802;2023-06-14T11:16:11;7.18;;;2.50;;
52534;SDS011;38443;53.164;5.802;2023-06-14T11:18:40;3.95;;;2.13;;
52534;SDS011;38443;53.164;5.802;2023-06-14T11:21:06;2.88;;;2.10;;
52534;SDS011;38443;53.164;5.802;2023-06-14T11:23:31;4.63;;;2.22;;
52534;SDS011;38443;53.164;5.802;2023-06-14T11:25:56;3.08;;;2.05;;
52534;SDS011;38443;53.164;5.802;2023-06-14T11:28:22;5.30;;;2.38;;
52534;SDS011;38443;53.164;5.802;2023-06-14T11:30:49;4.30;;;2.22;;
52534;SDS011;38443;53.164;5.802;2023-06-14T11:33:24;3.70;;;2.50;;
52534;SDS011;38443;53.164;5.802;2023-06-14T11:35:49;2.80;;;2.13;;
52534;SDS011;38443;53.164;5.802;2023-06-14T11:38:16;12.60;;;2.63;;
52534;SDS011;38443;53.164;5.802;2023-06-14T11:40:41;2.75;;;2.40;;
52534;SDS011;38443;53.164;5.802;2023-06-14T11:43:07;2.50;;;1.95;;
52534;SDS011;38443;53.164;5.802;2023-06-14T11:45:32;3.67;;;2.45;;
52534;SDS011;38443;53.164;5.802;2023-06-14T11:47:58;3.85;;;2.33;;
52534;SDS011;38443;53.164;5.802;2023-06-14T11:50:24;4.53;;;2.33;;
52534;SDS011;38443;53.164;5.802;2023-06-14T11:55:19;3.13;;;1.90;;
52534;SDS011;38443;53.164;5.802;2023-06-14T11:57:46;5.70;;;2.40;;
52534;SDS011;38443;53.164;5.802;2023-06-14T12:00:11;4.78;;;2.30;;
52534;SDS011;38443;53.164;5.802;2023-06-14T12:02:37;3.08;;;2.38;;
52534;SDS011;38443;53.164;5.802;2023-06-14T12:05:05;4.85;;;2.05;;
52534;SDS011;38443;53.164;5.802;2023-06-14T12:07:38;3.70;;;2.42;;
52534;SDS011;38443;53.164;5.802;2023-06-14T12:10:05;3.92;;;2.55;;
52534;SDS011;38443;53.164;5.802;2023-06-14T12:12:36;3.70;;;2.10;;
52534;SDS011;38443;53.164;5.802;2023-06-14T12:15:04;3.40;;;2.15;;
52534;SDS011;38443;53.164;5.802;2023-06-14T12:17:37;3.78;;;2.25;;
52534;SDS011;38443;53.164;5.802;2023-06-14T12:20:07;2.70;;;2.10;;
52534;SDS011;38443;53.164;5.802;2023-06-14T12:22:38;3.42;;;2.25;;
52534;SDS011;38443;53.164;5.802;2023-06-14T12:25:33;3.05;;;2.00;;
52534;SDS011;38443;53.164;5.802;2023-06-14T12:28:09;4.45;;;2.13;;
52534;SDS011;38443;53.164;5.802;2023-06-14T12:30:35;2.88;;;2.17;;
52534;SDS011;38443;53.164;5.802;2023-06-14T12:33:02;3.47;;;2.17;;
52534;SDS011;38443;53.164;5.802;2023-06-14T12:35:28;4.47;;;1.90;;
52534;SDS011;38443;53.164;5.802;2023-06-14T12:37:55;5.18;;;2.45;;
52534;SDS011;38443;53.164;5.802;2023-06-14T12:40:23;3.08;;;2.00;;
52534;SDS011;38443;53.164;5.802;2023-06-14T12:42:49;3.03;;;2.30;;
52534;SDS011;38443;53.164;5.802;2023-06-14T12:45:14;3.22;;;2.10;;
52534;SDS011;38443;53.164;5.802;2023-06-14T12:47:40;3.65;;;2.30;;
52534;SDS011;38443;53.164;5.802;2023-06-14T12:50:06;2.58;;;2.15;;
52534;SDS011;38443;53.164;5.802;2023-06-14T12:52:32;4.25;;;2.05;;
52534;SDS011;38443;53.164;5.802;2023-06-14T12:55:01;3.22;;;1.90;;
52534;SDS011;38443;53.164;5.802;2023-06-14T12:57:29;3.45;;;2.08;;
52534;SDS011;38443;53.164;5.802;2023-06-14T12:59:54;3.28;;;1.85;;
52534;SDS011;38443;53.164;5.802;2023-06-14T13:02:20;4.07;;;2.00;;
52534;SDS011;38443;53.164;5.802;2023-06-14T13:04:49;3.75;;;2.13;;
52534;SDS011;38443;53.164;5.802;2023-06-14T13:07:15;4.70;;;2.30;;
52534;SDS011;38443;53.164;5.802;2023-06-14T13:09:40;2.78;;;2.00;;
52534;SDS011;38443;53.164;5.802;2023-06-14T13:12:07;3.60;;;2.30;;
52534;SDS011;38443;53.164;5.802;2023-06-14T13:14:33;2.40;;;1.95;;
52534;SDS011;38443;53.164;5.802;2023-06-14T13:16:58;2.00;;;1.65;;
52534;SDS011;38443;53.164;5.802;2023-06-14T13:19:24;2.70;;;1.75;;
52534;SDS011;38443;53.164;5.802;2023-06-14T13:21:50;4.07;;;2.05;;
52534;SDS011;38443;53.164;5.802;2023-06-14T13:24:15;4.03;;;2.50;;
52534;SDS011;38443;53.164;5.802;2023-06-14T13:26:41;4.43;;;2.80;;
52534;SDS011;38443;53.164;5.802;2023-06-14T13:29:06;4.20;;;2.50;;
52534;SDS011;38443;53.164;5.802;2023-06-14T13:31:31;4.18;;;2.60;;
52534;SDS011;38443;53.164;5.802;2023-06-14T13:33:57;3.90;;;2.65;;
52534;SDS011;38443;53.164;5.802;2023-06-14T13:36:22;4.28;;;2.95;;
52534;SDS011;38443;53.164;5.802;2023-06-14T13:38:47;4.65;;;2.70;;
52534;SDS011;38443;53.164;5.802;2023-06-14T13:41:13;4.50;;;2.80;;
52534;SDS011;38443;53.164;5.802;2023-06-14T13:43:38;3.30;;;2.30;;
52534;SDS011;38443;53.164;5.802;2023-06-14T13:46:04;4.28;;;2.50;;
52534;SDS011;38443;53.164;5.802;2023-06-14T13:48:29;4.90;;;2.70;;
52534;SDS011;38443;53.164;5.802;2023-06-14T13:50:54;6.20;;;2.78;;
52534;SDS011;38443;53.164;5.802;2023-06-14T13:53:20;5.47;;;2.75;;
52534;SDS011;38443;53.164;5.802;2023-06-14T13:55:46;3.75;;;2.60;;
52534;SDS011;38443;53.164;5.802;2023-06-14T13:58:11;4.97;;;2.80;;
52534;SDS011;38443;53.164;5.802;2023-06-14T14:00:37;4.53;;;2.70;;
52534;SDS011;38443;53.164;5.802;2023-06-14T14:03:05;4.97;;;2.60;;
52534;SDS011;38443;53.164;5.802;2023-06-14T14:05:31;3.58;;;2.50;;
52534;SDS011;38443;53.164;5.802;2023-06-14T14:07:56;4.65;;;2.90;;
52534;SDS011;38443;53.164;5.802;2023-06-14T14:10:22;3.83;;;2.47;;
52534;SDS011;38443;53.164;5.802;2023-06-14T14:12:49;4.65;;;2.50;;
52534;SDS011;38443;53.164;5.802;2023-06-14T14:15:15;4.70;;;2.60;;
52534;SDS011;38443;53.164;5.802;2023-06-14T14:17:41;6.18;;;2.67;;
52534;SDS011;38443;53.164;5.802;2023-06-14T14:20:07;5.30;;;2.92;;
52534;SDS011;38443;53.164;5.802;2023-06-14T14:22:32;4.85;;;2.65;;
52534;SDS011;38443;53.164;5.802;2023-06-14T14:24:58;7.05;;;2.47;;
52534;SDS011;38443;53.164;5.802;2023-06-14T14:27:23;4.07;;;2.50;;
52534;SDS011;38443;53.164;5.802;2023-06-14T14:29:48;5.70;;;2.60;;
52534;SDS011;38443;53.164;5.802;2023-06-14T14:32:14;4.07;;;2.40;;
52534;SDS011;38443;53.164;5.802;2023-06-14T14:34:40;4.22;;;3.05;;
52534;SDS011;38443;53.164;5.802;2023-06-14T14:37:05;3.88;;;2.67;;
52534;SDS011;38443;53.164;5.802;2023-06-14T14:39:30;8.65;;;2.53;;
52534;SDS011;38443;53.164;5.802;2023-06-14T14:41:56;4.18;;;2.65;;
52534;SDS011;38443;53.164;5.802;2023-06-14T14:44:21;5.72;;;2.83;;
52534;SDS011;38443;53.164;5.802;2023-06-14T14:46:46;6.47;;;3.00;;
52534;SDS011;38443;53.164;5.802;2023-06-14T14:49:12;7.45;;;2.65;;
52534;SDS011;38443;53.164;5.802;2023-06-14T14:51:37;5.68;;;2.83;;
52534;SDS011;38443;53.164;5.802;2023-06-14T14:54:03;5.30;;;3.00;;
52534;SDS011;38443;53.164;5.802;2023-06-14T14:56:29;10.35;;;3.17;;